Time;durP1;ratioP1;P1;durP2;ratioP2;P2;SDS_P1;SDS_P2;PMS_P1;PMS_P2;Temp;Humidity;BMP_temperature;BMP_pressure;BME280_temperature;BME280_humidity;BME280_pressure;Samples;Min_cycle;Max_cycle;Signal;HPM_P1;HPM_P2
2021/01/03 00:00:01;;;;;;;10.32;7.65;;;1.20;99.90;;;;;;497450;238;27981;-81
2021/01/03 00:02:03;;;;;;;10.70;7.80;;;1.20;99.90;;;;;;497432;238;28097;-74
2021/01/03 00:04:04;;;;;;;12.15;8.02;;;1.20;99.90;;;;;;497462;238;27523;-75
2021/01/03 00:06:05;;;;;;;8.25;6.30;;;1.20;99.90;;;;;;497434;238;27495;-74
2021/01/03 00:08:06;;;;;;;10.30;7.15;;;1.10;99.90;;;;;;497433;238;27620;-77
2021/01/03 00:10:08;;;;;;;7.93;6.30;;;1.10;99.90;;;;;;497470;238;27447;-74
2021/01/03 00:12:09;;;;;;;9.40;6.95;;;1.10;99.90;;;;;;497437;238;27512;-75
2021/01/03 00:14:10;;;;;;;10.13;6.93;;;1.20;99.90;;;;;;497462;238;27491;-75
2021/01/03 00:16:11;;;;;;;9.68;6.87;;;1.30;99.90;;;;;;497390;238;27566;-75
2021/01/03 00:18:13;;;;;;;9.23;6.78;;;1.20;99.90;;;;;;497450;238;27495;-76
2021/01/03 00:20:14;;;;;;;9.90;7.87;;;1.20;99.90;;;;;;497423;238;28043;-76
2021/01/03 00:22:15;;;;;;;9.30;6.80;;;1.10;99.90;;;;;;497471;238;28009;-75
2021/01/03 00:24:16;;;;;;;10.35;6.97;;;1.10;99.90;;;;;;497457;238;27986;-75
2021/01/03 00:26:18;;;;;;;10.15;7.18;;;1.10;99.90;;;;;;497456;238;28109;-75
2021/01/03 00:28:19;;;;;;;10.27;6.97;;;1.00;99.90;;;;;;497457;238;27504;-74
2021/01/03 00:30:20;;;;;;;11.32;7.18;;;1.00;99.90;;;;;;497448;238;27518;-74
2021/01/03 00:32:21;;;;;;;11.55;7.60;;;1.20;99.90;;;;;;497442;238;27585;-75
2021/01/03 00:34:23;;;;;;;10.82;7.25;;;1.20;99.90;;;;;;497429;238;27492;-74
2021/01/03 00:36:24;;;;;;;10.55;7.22;;;1.00;99.90;;;;;;497480;238;27578;-74
2021/01/03 00:38:25;;;;;;;11.60;7.28;;;1.00;99.90;;;;;;497448;238;27452;-74
2021/01/03 00:40:27;;;;;;;10.93;7.28;;;1.10;99.90;;;;;;497413;238;27504;-75
2021/01/03 00:42:28;;;;;;;10.55;7.40;;;1.10;99.90;;;;;;497430;238;27963;-74
2021/01/03 00:44:29;;;;;;;11.40;8.00;;;1.00;99.90;;;;;;497262;238;28076;-75
2021/01/03 00:46:30;;;;;;;12.13;8.52;;;1.10;99.90;;;;;;497449;238;27503;-75
2021/01/03 00:48:32;;;;;;;10.25;7.32;;;1.00;99.90;;;;;;497441;238;27494;-74
2021/01/03 00:50:33;;;;;;;12.20;7.93;;;1.00;99.90;;;;;;497392;238;27481;-75
2021/01/03 00:52:34;;;;;;;11.45;7.47;;;1.10;99.90;;;;;;497471;238;27483;-74
2021/01/03 00:54:35;;;;;;;11.18;7.85;;;1.00;99.90;;;;;;497511;238;27493;-75
2021/01/03 00:56:37;;;;;;;11.73;7.90;;;1.00;99.90;;;;;;497576;238;27510;-77
2021/01/03 00:58:38;;;;;;;12.63;7.65;;;1.00;99.90;;;;;;497615;238;27479;-75
2021/01/03 01:00:39;;;;;;;10.68;7.70;;;1.00;99.90;;;;;;497567;238;27541;-75
2021/01/03 01:02:40;;;;;;;10.30;7.70;;;1.00;99.90;;;;;;497598;238;28809;-74
2021/01/03 01:04:42;;;;;;;11.20;7.43;;;1.00;99.90;;;;;;497620;238;27890;-74
2021/01/03 01:06:43;;;;;;;13.18;8.88;;;1.00;99.90;;;;;;497629;238;27963;-75
2021/01/03 01:08:44;;;;;;;16.15;10.02;;;0.90;99.90;;;;;;497620;238;27458;-75
2021/01/03 01:10:45;;;;;;;11.45;7.68;;;1.00;99.90;;;;;;497594;238;27489;-75
2021/01/03 01:12:47;;;;;;;11.90;7.72;;;0.90;99.90;;;;;;497589;238;27495;-74
2021/01/03 01:14:48;;;;;;;13.62;9.15;;;0.90;99.90;;;;;;497563;238;27559;-75
2021/01/03 01:16:49;;;;;;;10.95;7.78;;;0.90;99.90;;;;;;497554;238;27500;-76
2021/01/03 01:18:50;;;;;;;11.05;7.93;;;1.00;99.90;;;;;;497533;238;27453;-74
2021/01/03 01:20:52;;;;;;;12.65;8.35;;;0.90;99.90;;;;;;497431;238;27932;-75
2021/01/03 01:22:53;;;;;;;13.35;8.82;;;0.90;99.90;;;;;;497431;238;27945;-76
2021/01/03 01:24:54;;;;;;;11.43;7.75;;;0.90;99.90;;;;;;497433;238;27967;-75
2021/01/03 01:26:55;;;;;;;15.23;9.25;;;0.90;99.90;;;;;;497489;238;27637;-77
2021/01/03 01:28:57;;;;;;;12.23;8.82;;;0.90;99.90;;;;;;497483;238;27461;-75
2021/01/03 01:30:58;;;;;;;14.35;9.43;;;0.80;99.90;;;;;;497399;238;27476;-75
2021/01/03 01:32:59;;;;;;;14.32;9.05;;;0.90;99.90;;;;;;497457;238;27588;-75
2021/01/03 01:35:00;;;;;;;12.57;8.27;;;0.90;99.90;;;;;;497437;238;27486;-74
2021/01/03 01:37:02;;;;;;;15.95;9.20;;;0.90;99.90;;;;;;497487;238;28083;-78
2021/01/03 01:39:03;;;;;;;12.23;8.32;;;0.80;99.90;;;;;;497507;238;27475;-74
2021/01/03 01:41:04;;;;;;;16.42;9.65;;;0.90;99.90;;;;;;497435;238;27914;-76
2021/01/03 01:43:05;;;;;;;13.82;9.70;;;0.90;99.90;;;;;;497457;238;28040;-74
2021/01/03 01:45:07;;;;;;;13.02;9.88;;;0.90;99.90;;;;;;497438;238;28049;-74
2021/01/03 01:47:08;;;;;;;14.15;8.75;;;0.90;99.90;;;;;;497466;238;27487;-75
2021/01/03 01:49:09;;;;;;;15.55;9.63;;;1.00;99.90;;;;;;497490;238;27596;-77
2021/01/03 01:51:11;;;;;;;16.42;9.60;;;0.90;99.90;;;;;;497437;238;27580;-74
2021/01/03 01:53:12;;;;;;;13.73;9.50;;;0.90;99.90;;;;;;497400;238;27566;-75
2021/01/03 01:55:13;;;;;;;12.63;9.05;;;0.90;99.90;;;;;;497432;238;27484;-75
2021/01/03 01:57:14;;;;;;;10.68;8.57;;;0.90;99.90;;;;;;497382;238;27567;-74
2021/01/03 01:59:15;;;;;;;13.85;9.20;;;0.90;99.90;;;;;;497326;238;27515;-74
2021/01/03 02:01:17;;;;;;;12.25;9.00;;;0.90;99.90;;;;;;497358;238;28028;-75
2021/01/03 02:03:18;;;;;;;13.30;9.55;;;1.00;99.90;;;;;;497358;238;28048;-74
2021/01/03 02:05:19;;;;;;;10.43;7.70;;;1.00;99.90;;;;;;497370;238;28871;-77
2021/01/03 02:07:20;;;;;;;13.88;9.20;;;1.00;99.90;;;;;;497400;238;27568;-74
2021/01/03 02:09:22;;;;;;;14.87;10.43;;;1.00;99.90;;;;;;497360;238;27608;-75
2021/01/03 02:11:23;;;;;;;13.05;9.00;;;0.90;99.90;;;;;;497365;238;27519;-74
2021/01/03 02:13:24;;;;;;;14.50;9.45;;;0.90;99.90;;;;;;497393;238;27494;-75
2021/01/03 02:15:25;;;;;;;15.82;9.98;;;0.90;99.90;;;;;;497484;238;27873;-76
2021/01/03 02:17:27;;;;;;;15.43;9.80;;;0.80;99.90;;;;;;497509;238;27448;-74
2021/01/03 02:19:28;;;;;;;14.32;8.77;;;0.90;99.90;;;;;;497552;238;27523;-75
2021/01/03 02:21:29;;;;;;;12.75;9.32;;;0.90;99.90;;;;;;497567;238;28030;-74
2021/01/03 02:23:30;;;;;;;14.35;9.15;;;0.90;99.90;;;;;;497581;238;28062;-76
2021/01/03 02:25:32;;;;;;;15.82;9.80;;;0.80;99.90;;;;;;497614;238;28080;-78
2021/01/03 02:27:33;;;;;;;12.25;8.18;;;0.80;99.90;;;;;;497618;238;27444;-74
2021/01/03 02:29:34;;;;;;;12.90;8.25;;;0.80;99.90;;;;;;497625;238;27493;-75
2021/01/03 02:31:35;;;;;;;12.15;8.18;;;0.90;99.90;;;;;;497599;238;27471;-74
2021/01/03 02:33:37;;;;;;;12.85;8.82;;;0.90;99.90;;;;;;497550;238;27448;-74
2021/01/03 02:35:38;;;;;;;12.88;8.95;;;1.00;99.90;;;;;;497672;238;27484;-76
2021/01/03 02:37:39;;;;;;;15.23;9.10;;;0.90;99.90;;;;;;497588;238;27495;-74
2021/01/03 02:39:40;;;;;;;13.20;8.60;;;0.90;99.90;;;;;;497517;238;27586;-75
2021/01/03 02:41:42;;;;;;;14.70;8.80;;;0.90;99.90;;;;;;497428;238;28029;-78
2021/01/03 02:43:43;;;;;;;12.43;9.30;;;0.80;99.90;;;;;;497404;238;27976;-74
2021/01/03 02:45:44;;;;;;;12.40;8.25;;;0.90;99.90;;;;;;497430;238;27488;-74
2021/01/03 02:47:45;;;;;;;11.73;9.00;;;0.90;99.90;;;;;;497415;238;27534;-74
2021/01/03 02:49:47;;;;;;;11.60;8.60;;;0.80;99.90;;;;;;497456;238;27523;-75
2021/01/03 02:51:48;;;;;;;12.98;9.23;;;0.80;99.90;;;;;;497429;238;27489;-76
2021/01/03 02:53:49;;;;;;;11.98;8.63;;;0.80;99.90;;;;;;497401;238;27491;-75
2021/01/03 02:55:51;;;;;;;13.02;8.48;;;0.80;99.90;;;;;;497436;238;27488;-74
2021/01/03 02:57:52;;;;;;;13.57;8.30;;;0.90;99.90;;;;;;497413;238;27550;-74
2021/01/03 02:59:53;;;;;;;11.05;8.73;;;0.80;99.90;;;;;;497425;238;27939;-76
2021/01/03 03:01:54;;;;;;;14.07;9.43;;;0.80;99.90;;;;;;497372;238;27967;-74
2021/01/03 03:03:56;;;;;;;12.95;8.90;;;0.80;99.90;;;;;;497441;238;27499;-74
2021/01/03 03:05:57;;;;;;;10.80;8.18;;;0.80;99.90;;;;;;497452;238;27472;-74
2021/01/03 03:07:58;;;;;;;11.75;8.43;;;0.80;99.90;;;;;;497435;238;27645;-75
2021/01/03 03:09:59;;;;;;;11.73;8.43;;;0.70;99.90;;;;;;497444;238;27512;-76
2021/01/03 03:12:01;;;;;;;13.38;9.10;;;0.80;99.90;;;;;;497396;238;27494;-76
2021/01/03 03:14:02;;;;;;;13.30;8.45;;;0.90;99.90;;;;;;497483;238;27524;-74
2021/01/03 03:16:03;;;;;;;12.48;8.40;;;1.00;99.90;;;;;;497459;238;27562;-75
2021/01/03 03:18:08;;;;;;;12.60;8.68;;;0.80;99.90;;;;;;497488;238;27480;-75
2021/01/03 03:20:06;;;;;;;10.18;8.57;;;0.80;99.90;;;;;;497211;238;27966;-75
2021/01/03 03:22:07;;;;;;;12.77;8.15;;;0.80;99.90;;;;;;497440;238;28062;-75
2021/01/03 03:24:08;;;;;;;12.98;8.60;;;0.80;99.90;;;;;;497422;238;27568;-74
2021/01/03 03:26:09;;;;;;;10.77;8.30;;;0.70;99.90;;;;;;497483;238;27515;-75
2021/01/03 03:28:11;;;;;;;12.77;9.50;;;0.70;99.90;;;;;;497427;238;27498;-75
2021/01/03 03:30:12;;;;;;;11.00;8.27;;;0.70;99.90;;;;;;497423;238;27499;-75
2021/01/03 03:32:13;;;;;;;11.65;8.18;;;0.70;99.90;;;;;;497452;238;27602;-77
2021/01/03 03:34:14;;;;;;;13.07;9.07;;;0.80;99.90;;;;;;497496;238;27599;-78
2021/01/03 03:36:16;;;;;;;11.93;8.30;;;1.00;99.90;;;;;;497516;238;27456;-74
2021/01/03 03:38:17;;;;;;;10.20;7.68;;;1.00;99.90;;;;;;497517;238;27578;-75
2021/01/03 03:40:18;;;;;;;16.52;9.73;;;0.80;99.90;;;;;;497477;238;28510;-75
2021/01/03 03:42:19;;;;;;;11.98;8.73;;;0.90;99.90;;;;;;497515;238;28080;-75
2021/01/03 03:44:21;;;;;;;12.00;9.20;;;1.00;99.90;;;;;;497526;238;27520;-77
2021/01/03 03:46:22;;;;;;;14.00;10.05;;;0.90;99.90;;;;;;497583;238;27446;-74
2021/01/03 03:48:23;;;;;;;15.80;10.25;;;0.80;99.90;;;;;;497621;238;27585;-75
2021/01/03 03:50:24;;;;;;;13.65;9.88;;;0.70;99.90;;;;;;497643;238;27594;-74
2021/01/03 03:52:26;;;;;;;14.57;9.80;;;0.70;99.90;;;;;;497691;238;27453;-75
2021/01/03 03:54:27;;;;;;;14.07;9.60;;;0.70;99.90;;;;;;497666;238;27475;-77
2021/01/03 03:56:28;;;;;;;15.48;9.48;;;0.60;99.90;;;;;;497632;238;27451;-74
2021/01/03 03:58:29;;;;;;;12.23;8.85;;;0.60;99.90;;;;;;497647;238;27940;-74
2021/01/03 04:00:31;;;;;;;15.95;10.10;;;0.70;99.90;;;;;;497569;238;28494;-75
2021/01/03 04:02:32;;;;;;;13.05;9.60;;;0.60;99.90;;;;;;497613;238;27909;-74
2021/01/03 04:04:33;;;;;;;17.23;10.88;;;0.70;99.90;;;;;;497605;238;27514;-75
2021/01/03 04:06:34;;;;;;;11.90;9.40;;;0.70;99.90;;;;;;497571;238;27614;-74
2021/01/03 04:08:36;;;;;;;15.95;9.90;;;0.70;99.90;;;;;;497506;238;27574;-74
2021/01/03 04:10:40;;;;;;;14.23;9.80;;;0.60;99.90;;;;;;497418;238;27603;-77
2021/01/03 04:12:38;;;;;;;15.88;10.60;;;0.60;99.90;;;;;;497355;238;27469;-74
2021/01/03 04:14:39;;;;;;;14.80;10.30;;;0.70;99.90;;;;;;497484;238;27516;-75
2021/01/03 04:16:41;;;;;;;13.13;9.88;;;0.70;99.90;;;;;;497469;238;28780;-74
2021/01/03 04:18:42;;;;;;;15.18;11.45;;;0.70;99.90;;;;;;497440;238;27938;-74
2021/01/03 04:20:43;;;;;;;15.75;10.32;;;0.70;99.90;;;;;;497434;238;27517;-74
2021/01/03 04:22:44;;;;;;;15.93;10.82;;;0.60;99.90;;;;;;497452;238;27453;-74
2021/01/03 04:24:46;;;;;;;16.58;11.38;;;0.70;99.90;;;;;;497445;238;27483;-76
2021/01/03 04:26:47;;;;;;;14.52;11.18;;;0.60;99.90;;;;;;497448;238;27918;-75
2021/01/03 04:28:48;;;;;;;17.50;10.30;;;0.60;99.90;;;;;;497421;238;27527;-74
2021/01/03 04:30:49;;;;;;;19.37;11.07;;;0.70;99.90;;;;;;497392;238;27534;-75
2021/01/03 04:32:51;;;;;;;13.32;10.18;;;0.60;99.90;;;;;;497436;238;27947;-74
2021/01/03 04:34:52;;;;;;;14.75;10.68;;;0.60;99.90;;;;;;497449;238;27977;-78
2021/01/03 04:36:53;;;;;;;17.20;11.23;;;0.70;99.90;;;;;;497465;238;27483;-75
2021/01/03 04:38:54;;;;;;;15.80;11.50;;;0.70;99.90;;;;;;497455;238;27476;-74
2021/01/03 04:40:56;;;;;;;19.33;13.10;;;0.80;99.90;;;;;;497405;238;27479;-74
2021/01/03 04:42:57;;;;;;;16.45;11.60;;;0.80;99.90;;;;;;497439;238;27503;-76
2021/01/03 04:44:58;;;;;;;20.37;11.68;;;0.70;99.90;;;;;;497449;238;27467;-74
2021/01/03 04:47:00;;;;;;;19.05;12.45;;;0.60;99.90;;;;;;497422;238;27606;-76
2021/01/03 04:49:01;;;;;;;16.27;11.43;;;0.60;99.90;;;;;;497416;238;27964;-75
2021/01/03 04:51:02;;;;;;;14.80;11.52;;;0.70;99.90;;;;;;497359;238;27949;-74
2021/01/03 04:53:03;;;;;;;17.02;11.70;;;0.70;99.90;;;;;;497453;238;27578;-75
2021/01/03 04:55:05;;;;;;;19.27;12.60;;;0.70;99.90;;;;;;497429;238;27498;-74
2021/01/03 04:57:06;;;;;;;17.42;12.43;;;0.60;99.90;;;;;;497438;238;27580;-74
2021/01/03 04:59:07;;;;;;;16.45;11.15;;;0.60;99.90;;;;;;497478;238;27573;-75
2021/01/03 05:01:08;;;;;;;17.25;11.60;;;0.70;99.90;;;;;;497430;238;27558;-74
2021/01/03 05:03:10;;;;;;;18.58;12.23;;;0.70;99.90;;;;;;497451;238;27994;-74
2021/01/03 05:05:11;;;;;;;14.87;10.60;;;0.70;99.90;;;;;;497459;238;29002;-73
2021/01/03 05:07:12;;;;;;;14.57;10.55;;;0.80;99.90;;;;;;497464;238;27484;-74
2021/01/03 05:09:13;;;;;;;13.85;10.70;;;0.90;99.90;;;;;;497418;238;27577;-75
2021/01/03 05:11:15;;;;;;;16.23;11.38;;;1.00;99.90;;;;;;497439;238;27538;-75
2021/01/03 05:13:16;;;;;;;15.27;11.05;;;1.10;99.90;;;;;;497474;238;27476;-75
2021/01/03 05:15:17;;;;;;;13.38;10.05;;;1.10;99.90;;;;;;497424;238;27565;-74
2021/01/03 05:17:18;;;;;;;14.93;9.93;;;1.00;99.90;;;;;;497435;238;27499;-73
2021/01/03 05:19:20;;;;;;;14.38;11.00;;;1.00;99.90;;;;;;497495;238;27947;-75
2021/01/03 05:21:21;;;;;;;17.90;11.43;;;0.90;99.90;;;;;;497433;238;27888;-74
2021/01/03 05:23:22;;;;;;;14.85;11.10;;;0.90;99.90;;;;;;497515;238;27498;-75
2021/01/03 05:25:23;;;;;;;14.57;10.52;;;0.80;99.90;;;;;;497418;238;27508;-74
2021/01/03 05:27:25;;;;;;;15.75;10.85;;;0.80;99.90;;;;;;497598;238;27448;-74
2021/01/03 05:29:26;;;;;;;14.35;10.88;;;0.90;99.90;;;;;;497587;238;27535;-75
2021/01/03 05:31:27;;;;;;;13.93;10.52;;;0.80;99.90;;;;;;497582;238;27500;-74
2021/01/03 05:33:28;;;;;;;19.02;11.60;;;0.70;99.90;;;;;;497640;238;27488;-75
2021/01/03 05:35:30;;;;;;;17.30;10.68;;;0.70;99.90;;;;;;497559;238;28432;-75
2021/01/03 05:37:31;;;;;;;14.90;10.27;;;0.80;99.90;;;;;;497505;238;27898;-75
2021/01/03 05:39:32;;;;;;;14.15;10.38;;;0.80;99.90;;;;;;497452;238;27508;-74
2021/01/03 05:41:33;;;;;;;13.45;10.25;;;0.90;99.90;;;;;;497442;238;27558;-74
2021/01/03 05:43:35;;;;;;;13.00;9.40;;;0.90;99.90;;;;;;497449;238;27476;-76
2021/01/03 05:45:36;;;;;;;11.82;9.82;;;1.00;99.90;;;;;;497454;238;27569;-75
2021/01/03 05:47:37;;;;;;;13.45;10.18;;;0.90;99.90;;;;;;497456;238;27600;-75
2021/01/03 05:49:38;;;;;;;13.23;9.85;;;1.00;99.90;;;;;;497426;238;27569;-74
2021/01/03 05:51:40;;;;;;;12.37;9.75;;;0.80;99.90;;;;;;497418;238;28670;-74
2021/01/03 05:53:41;;;;;;;13.75;9.82;;;0.80;99.90;;;;;;497414;238;28081;-75
2021/01/03 05:55:42;;;;;;;15.98;11.12;;;0.80;99.90;;;;;;497394;238;29062;-76
2021/01/03 05:57:43;;;;;;;14.77;10.10;;;0.70;99.90;;;;;;497398;238;27602;-75
2021/01/03 05:59:45;;;;;;;15.45;10.70;;;0.70;99.90;;;;;;497326;238;27549;-75
2021/01/03 06:01:46;;;;;;;14.85;10.55;;;0.80;99.90;;;;;;497356;238;27472;-74
2021/01/03 06:03:47;;;;;;;15.10;9.60;;;0.80;99.90;;;;;;497448;238;27485;-76
2021/01/03 06:05:49;;;;;;;12.73;10.18;;;0.70;99.90;;;;;;497393;238;27499;-75
2021/01/03 06:07:50;;;;;;;16.27;11.48;;;0.70;99.90;;;;;;497417;238;28082;-74
2021/01/03 06:09:51;;;;;;;14.45;10.68;;;0.70;99.90;;;;;;497400;238;27940;-75
2021/01/03 06:11:52;;;;;;;13.90;10.02;;;0.70;99.90;;;;;;497411;238;27987;-74
2021/01/03 06:13:54;;;;;;;15.52;11.05;;;0.80;99.90;;;;;;497420;238;27484;-75
2021/01/03 06:15:57;;;;;;;15.25;10.45;;;1.00;99.90;;;;;;497425;238;27626;-75
2021/01/03 06:17:56;;;;;;;15.65;10.80;;;0.90;99.90;;;;;;497309;238;27483;-74
2021/01/03 06:19:57;;;;;;;14.95;11.00;;;0.80;99.90;;;;;;497496;238;27439;-74
2021/01/03 06:21:59;;;;;;;16.40;11.10;;;0.70;99.90;;;;;;497419;238;27600;-75
2021/01/03 06:24:00;;;;;;;15.38;11.23;;;0.70;99.90;;;;;;497392;238;27943;-75
2021/01/03 06:26:01;;;;;;;14.85;11.23;;;0.70;99.90;;;;;;497417;238;27950;-75
2021/01/03 06:28:02;;;;;;;15.00;11.73;;;0.80;99.90;;;;;;497456;238;27496;-74
2021/01/03 06:30:04;;;;;;;15.82;11.15;;;0.80;99.90;;;;;;497422;238;27546;-76
2021/01/03 06:32:05;;;;;;;14.57;11.27;;;0.70;99.90;;;;;;497450;238;27612;-75
2021/01/03 06:34:06;;;;;;;14.55;10.93;;;0.70;99.90;;;;;;497484;238;27544;-74
2021/01/03 06:36:07;;;;;;;19.37;12.82;;;0.70;99.90;;;;;;497579;238;27498;-74
2021/01/03 06:38:09;;;;;;;15.75;11.07;;;0.70;99.90;;;;;;497599;238;27515;-77
2021/01/03 06:40:10;;;;;;;15.45;11.48;;;0.70;99.90;;;;;;497561;238;27971;-74
2021/01/03 06:42:11;;;;;;;17.90;11.80;;;0.70;99.90;;;;;;497644;238;29173;-74
2021/01/03 06:44:12;;;;;;;20.98;11.80;;;0.60;99.90;;;;;;497565;238;27616;-74
2021/01/03 06:46:14;;;;;;;18.15;13.10;;;0.60;99.90;;;;;;497695;238;27466;-74
2021/01/03 06:48:15;;;;;;;17.48;12.20;;;0.60;99.90;;;;;;497672;238;27587;-75
2021/01/03 06:50:16;;;;;;;16.75;11.65;;;0.70;99.90;;;;;;497603;238;27442;-74
2021/01/03 06:52:17;;;;;;;18.37;12.85;;;0.80;99.90;;;;;;497585;238;27500;-75
2021/01/03 06:54:19;;;;;;;15.15;11.18;;;0.80;99.90;;;;;;497579;238;27475;-74
2021/01/03 06:56:20;;;;;;;18.05;12.40;;;0.80;99.90;;;;;;497533;238;28007;-74
2021/01/03 06:58:21;;;;;;;14.63;11.12;;;0.90;99.90;;;;;;497531;238;28081;-75
2021/01/03 07:00:22;;;;;;;17.75;12.90;;;0.90;99.90;;;;;;497463;238;27483;-74
2021/01/03 07:02:24;;;;;;;15.05;11.55;;;0.90;99.90;;;;;;497475;238;27567;-75
2021/01/03 07:04:25;;;;;;;15.05;10.95;;;0.80;99.90;;;;;;497474;238;27832;-74
2021/01/03 07:06:26;;;;;;;18.10;12.45;;;0.90;99.90;;;;;;497500;238;27507;-75
2021/01/03 07:08:27;;;;;;;16.87;11.40;;;1.00;99.90;;;;;;497502;238;27483;-76
2021/01/03 07:10:29;;;;;;;17.20;12.57;;;1.00;99.90;;;;;;497424;238;27965;-74
2021/01/03 07:12:30;;;;;;;16.60;12.23;;;1.00;99.90;;;;;;497479;238;28228;-74
2021/01/03 07:14:31;;;;;;;16.55;12.05;;;1.10;99.90;;;;;;497461;238;27513;-75
2021/01/03 07:16:32;;;;;;;17.10;11.93;;;1.10;99.90;;;;;;497481;238;27546;-74
2021/01/03 07:18:34;;;;;;;17.48;12.48;;;1.10;99.90;;;;;;497489;238;27579;-74
2021/01/03 07:20:35;;;;;;;17.08;12.02;;;0.90;99.90;;;;;;497452;238;27544;-74
2021/01/03 07:22:36;;;;;;;18.12;12.07;;;0.90;99.90;;;;;;497506;238;27623;-74
2021/01/03 07:24:38;;;;;;;19.77;13.18;;;0.90;99.90;;;;;;497479;238;27479;-75
2021/01/03 07:26:39;;;;;;;21.30;13.50;;;0.90;99.90;;;;;;497467;238;27943;-74
2021/01/03 07:28:40;;;;;;;19.65;13.68;;;0.90;99.90;;;;;;497406;238;28665;-75
2021/01/03 07:30:41;;;;;;;17.40;11.90;;;0.90;99.90;;;;;;497450;238;27503;-75
2021/01/03 07:32:43;;;;;;;23.27;12.75;;;1.10;99.90;;;;;;495636;238;27468;-75
2021/01/03 07:34:44;;;;;;;17.15;13.15;;;1.10;99.90;;;;;;486285;239;27505;-75
2021/01/03 07:36:45;;;;;;;17.00;12.35;;;1.00;99.90;;;;;;485648;245;27541;-74
2021/01/03 07:38:46;;;;;;;17.30;12.55;;;1.20;99.90;;;;;;485645;244;27443;-75
2021/01/03 07:40:48;;;;;;;23.10;14.93;;;1.20;99.90;;;;;;485650;245;27462;-75
2021/01/03 07:42:49;;;;;;;17.50;12.10;;;1.20;99.90;;;;;;485664;245;27987;-75
2021/01/03 07:44:50;;;;;;;16.10;10.85;;;1.40;99.90;;;;;;485648;245;28057;-74
2021/01/03 07:46:51;;;;;;;14.00;10.98;;;1.40;99.90;;;;;;485652;245;27495;-74
2021/01/03 07:48:53;;;;;;;14.85;10.85;;;1.40;99.90;;;;;;485674;245;27611;-74
2021/01/03 07:50:54;;;;;;;16.80;11.27;;;1.40;99.90;;;;;;485571;245;27450;-75
2021/01/03 07:52:55;;;;;;;13.32;10.90;;;1.40;99.90;;;;;;485628;245;27788;-74
2021/01/03 07:54:56;;;;;;;17.15;11.02;;;1.40;99.90;;;;;;485640;245;27527;-74
2021/01/03 07:56:58;;;;;;;16.95;12.40;;;1.40;99.90;;;;;;485625;245;27998;-76
2021/01/03 07:58:59;;;;;;;14.38;11.30;;;1.40;99.90;;;;;;485650;245;27863;-73
2021/01/03 08:01:00;;;;;;;14.57;11.88;;;1.40;99.90;;;;;;485597;245;27530;-74
2021/01/03 08:03:01;;;;;;;17.58;12.93;;;1.50;99.90;;;;;;485564;245;27540;-75
2021/01/03 08:05:03;;;;;;;16.50;11.40;;;1.50;99.90;;;;;;485661;245;28034;-74
2021/01/03 08:07:04;;;;;;;16.92;11.12;;;1.50;99.90;;;;;;485619;245;28086;-74
2021/01/03 08:09:05;;;;;;;16.87;12.02;;;1.50;99.90;;;;;;485681;245;28758;-74
2021/01/03 08:11:07;;;;;;;16.83;11.70;;;1.50;99.90;;;;;;485611;245;27459;-74
2021/01/03 08:13:08;;;;;;;15.10;11.60;;;1.40;99.90;;;;;;485621;245;27547;-76
2021/01/03 08:15:09;;;;;;;15.75;11.25;;;1.40;99.90;;;;;;485650;245;27634;-74
2021/01/03 08:17:11;;;;;;;17.65;12.27;;;1.40;99.90;;;;;;488864;241;27529;-74
2021/01/03 08:19:12;;;;;;;17.15;12.35;;;1.50;99.90;;;;;;493468;241;27454;-74
2021/01/03 08:21:13;;;;;;;18.08;12.65;;;1.50;99.90;;;;;;493302;241;27952;-74
2021/01/03 08:23:14;;;;;;;16.80;11.27;;;1.50;99.90;;;;;;493312;241;28004;-74
2021/01/03 08:25:15;;;;;;;18.10;11.02;;;1.50;99.90;;;;;;493289;241;27501;-74
2021/01/03 08:27:17;;;;;;;17.67;11.73;;;1.40;99.90;;;;;;493418;241;27413;-74
2021/01/03 08:29:18;;;;;;;17.45;11.57;;;1.50;99.90;;;;;;493368;241;27525;-73
2021/01/03 08:31:19;;;;;;;13.25;11.05;;;1.50;99.90;;;;;;493275;241;27561;-75
2021/01/03 08:33:20;;;;;;;15.57;10.70;;;1.50;99.90;;;;;;493281;241;27674;-75
2021/01/03 08:35:22;;;;;;;15.60;11.68;;;1.60;99.90;;;;;;493329;241;27509;-74
2021/01/03 08:37:23;;;;;;;18.27;12.52;;;1.50;99.90;;;;;;493348;241;28072;-74
2021/01/03 08:39:24;;;;;;;17.02;12.68;;;1.50;99.90;;;;;;493357;241;28147;-75
2021/01/03 08:41:25;;;;;;;18.30;12.05;;;1.60;99.90;;;;;;493277;241;27493;-75
2021/01/03 08:43:27;;;;;;;17.40;11.88;;;1.60;99.90;;;;;;493304;241;27514;-74
2021/01/03 08:45:28;;;;;;;16.58;11.50;;;1.70;99.90;;;;;;493353;241;27516;-74
2021/01/03 08:47:29;;;;;;;16.77;11.60;;;1.70;99.90;;;;;;493363;241;27529;-74
2021/01/03 08:49:30;;;;;;;18.12;12.20;;;1.80;99.90;;;;;;493377;241;27537;-74
2021/01/03 08:51:32;;;;;;;16.52;12.43;;;1.80;99.90;;;;;;493315;241;27541;-74
2021/01/03 08:53:33;;;;;;;18.55;12.88;;;1.50;99.90;;;;;;493292;241;28090;-74
2021/01/03 08:55:34;;;;;;;17.98;12.98;;;1.50;99.90;;;;;;493380;241;29076;-74
2021/01/03 08:57:35;;;;;;;16.98;12.40;;;1.50;99.90;;;;;;493351;241;27422;-75
2021/01/03 08:59:37;;;;;;;16.73;11.75;;;1.50;99.90;;;;;;493346;241;27509;-74
2021/01/03 09:01:38;;;;;;;18.90;12.40;;;1.60;99.90;;;;;;493310;241;27531;-73
2021/01/03 09:03:39;;;;;;;16.17;11.82;;;1.60;99.90;;;;;;493368;241;27424;-75
2021/01/03 09:05:41;;;;;;;19.50;12.23;;;1.60;99.90;;;;;;493294;241;27541;-76
2021/01/03 09:07:42;;;;;;;16.23;12.10;;;1.60;99.90;;;;;;493283;241;28089;-73
2021/01/03 09:09:43;;;;;;;16.65;11.98;;;1.50;99.90;;;;;;493384;241;29164;-73
2021/01/03 09:11:44;;;;;;;17.80;12.88;;;1.60;99.90;;;;;;493299;241;27520;-73
2021/01/03 09:13:46;;;;;;;19.60;13.18;;;1.50;99.90;;;;;;493328;241;27505;-73
2021/01/03 09:15:47;;;;;;;15.77;12.05;;;1.60;99.90;;;;;;493382;241;27509;-74
2021/01/03 09:17:48;;;;;;;17.25;11.07;;;1.60;99.90;;;;;;493350;241;27845;-73
2021/01/03 09:19:49;;;;;;;16.95;12.30;;;1.70;99.90;;;;;;493398;241;27520;-73
2021/01/03 09:21:51;;;;;;;23.73;13.10;;;1.70;99.90;;;;;;493415;241;27533;-75
2021/01/03 09:23:52;;;;;;;14.85;11.50;;;1.80;99.90;;;;;;493484;241;27996;-73
2021/01/03 09:25:53;;;;;;;17.20;12.63;;;1.60;99.90;;;;;;493580;241;27987;-75
2021/01/03 09:27:54;;;;;;;17.70;12.50;;;1.70;99.90;;;;;;493550;241;27476;-73
2021/01/03 09:29:56;;;;;;;16.65;11.90;;;1.80;99.90;;;;;;493465;241;27513;-74
2021/01/03 09:31:57;;;;;;;15.65;11.70;;;1.80;99.90;;;;;;493463;241;27528;-77
2021/01/03 09:33:58;;;;;;;15.05;10.85;;;1.80;99.90;;;;;;493467;241;27389;-74
2021/01/03 09:35:59;;;;;;;17.55;11.57;;;1.60;99.90;;;;;;493402;241;27542;-74
2021/01/03 09:38:01;;;;;;;16.80;11.15;;;1.70;99.90;;;;;;493394;241;27536;-73
2021/01/03 09:40:02;;;;;;;18.30;12.65;;;1.70;99.90;;;;;;493315;241;27980;-74
2021/01/03 09:42:03;;;;;;;16.90;12.07;;;1.60;99.90;;;;;;493321;237;28700;-75
2021/01/03 09:44:04;;;;;;;15.32;11.35;;;1.60;99.90;;;;;;493375;241;27369;-73
2021/01/03 09:46:06;;;;;;;16.73;11.25;;;1.70;99.90;;;;;;493364;241;27504;-73
2021/01/03 09:48:07;;;;;;;15.80;12.15;;;1.90;99.90;;;;;;493303;241;27477;-73
2021/01/03 09:50:08;;;;;;;14.18;11.65;;;1.80;99.90;;;;;;493270;241;27507;-73
2021/01/03 09:52:09;;;;;;;16.15;12.35;;;1.80;99.90;;;;;;493344;241;27536;-76
2021/01/03 09:54:11;;;;;;;15.95;12.32;;;1.70;99.90;;;;;;493264;241;28072;-73
2021/01/03 09:56:12;;;;;;;16.35;12.37;;;1.80;99.90;;;;;;493372;241;27992;-75
2021/01/03 09:58:13;;;;;;;19.75;12.65;;;1.80;99.90;;;;;;493325;241;27599;-76
2021/01/03 10:00:15;;;;;;;16.75;12.18;;;1.50;99.90;;;;;;493266;241;28421;-73
2021/01/03 10:02:16;;;;;;;16.30;12.10;;;1.60;99.90;;;;;;493318;241;29166;-73
2021/01/03 10:04:17;;;;;;;18.27;14.38;;;1.80;99.90;;;;;;493242;241;27656;-74
2021/01/03 10:06:18;;;;;;;16.05;12.98;;;1.90;99.90;;;;;;493213;241;27538;-73
2021/01/03 10:08:20;;;;;;;17.87;13.60;;;1.90;99.90;;;;;;493314;241;27540;-75
2021/01/03 10:10:21;;;;;;;18.30;13.45;;;1.80;99.90;;;;;;493220;241;27537;-74
2021/01/03 10:12:22;;;;;;;18.55;12.90;;;1.80;99.90;;;;;;493733;241;27488;-73
2021/01/03 10:14:23;;;;;;;19.02;13.95;;;1.80;99.90;;;;;;493668;241;27965;-74
2021/01/03 10:16:25;;;;;;;19.60;13.50;;;1.60;99.90;;;;;;493741;241;28016;-74
2021/01/03 10:18:26;;;;;;;17.48;13.27;;;1.50;99.90;;;;;;493702;241;27470;-73
2021/01/03 10:20:27;;;;;;;16.92;12.35;;;1.40;99.90;;;;;;493208;237;27629;-73
2021/01/03 10:22:28;;;;;;;17.95;12.20;;;1.50;99.90;;;;;;493206;241;27520;-74
2021/01/03 10:24:31;;;;;;;16.00;12.10;;;1.70;99.90;;;;;;493287;241;28023;-74